ENEV

Harstad/Narvik

Airport
ICAO code
ENEV
Summary
ICAO Region
EUR
ICAO Territory
Location

Evenes, Norway,

Serving
Harstad/Narvik
Coordinates
68° 29' 18" N , 16° 40' 42" E
KCC
Airport WX
Low Level Turbulence
Metar
Observation
ENEV 271520Z 16013KT 5000 -RA FEW005 SCT010 BKN017 04/02 Q0999 RMK WIND 1400FT 23024G37KT
Station
Evenes
Date/Time
2023-01-27 15:20:00
Wind direction
160°
Wind speed
13 kts
Lowest cloud amount
few clouds
Temperature
4°C
Dew point
2°C
Humidity
86%
QNH
999 hPa
Weather condition
n/a

Description

International airport at Evenes which serves the towns of Harstad and Narvik, northern Norway.

Climatology

Subpolar Oceanic climate (Köppen climate classification Cfc) - uniform precipitation distribution, temperatures are moderated by the proximity of the ocean and warm currents - cool summers and comparatively mild winters.

Runways

Designator Length Width Surface Rops
17/35 2815 45 ASP Yes/Yes

Airport map

Aerial View

SKYbrary Partners:

Safety knowledge contributed by: